createdAt,value
2022-09-12T00:00:51.384Z,65.8
2022-09-12T00:06:27.999Z,65.9
2022-09-12T00:12:02.866Z,66.1
2022-09-12T00:17:38.819Z,66
2022-09-12T00:23:13.479Z,66.1
2022-09-12T00:28:48.647Z,66.2
2022-09-12T00:34:45.392Z,66
2022-09-12T00:40:18.259Z,66
2022-09-12T00:45:53.107Z,66.2
2022-09-12T00:51:28.665Z,66.5
2022-09-12T00:57:03.502Z,67
2022-09-12T01:02:39.424Z,67.2
2022-09-12T01:08:14.162Z,67.3
2022-09-12T01:13:49.038Z,67.3
2022-09-12T01:19:23.952Z,67.3
2022-09-12T01:24:59.075Z,67.4
2022-09-12T01:30:33.775Z,67.3
2022-09-12T01:36:08.632Z,67.1
2022-09-12T01:41:44.647Z,67.3
2022-09-12T01:47:19.425Z,67
2022-09-12T01:52:54.328Z,66.9
2022-09-12T01:58:30.485Z,66.6
2022-09-12T02:04:06.194Z,66.3
2022-09-12T02:09:41.321Z,66.2
2022-09-12T02:15:17.069Z,65.1
2022-09-12T02:20:53.048Z,64.8
2022-09-12T02:26:27.782Z,64.8
2022-09-12T02:32:24.272Z,64.6
2022-09-12T02:37:57.896Z,64
2022-09-12T02:43:32.654Z,64.1
2022-09-12T02:49:09.744Z,64.2
2022-09-12T02:54:44.725Z,64.5
2022-09-12T03:00:20.905Z,64.7
2022-09-12T03:05:55.730Z,65.1
2022-09-12T03:11:30.548Z,65.3
2022-09-12T03:17:06.716Z,65.8
2022-09-12T03:22:42.578Z,66
2022-09-12T03:28:17.896Z,66.1
2022-09-12T03:34:14.463Z,66
2022-09-12T03:39:47.408Z,66.2
2022-09-12T03:45:22.739Z,66
2022-09-12T03:50:57.638Z,66.4
2022-09-12T03:56:33.481Z,66.7
2022-09-12T04:02:10.393Z,67
2022-09-12T04:07:45.752Z,67.1
2022-09-12T04:13:20.719Z,67.3
2022-09-12T04:18:55.584Z,66
2022-09-12T04:24:31.446Z,65.6
2022-09-12T04:30:06.495Z,66
2022-09-12T04:35:41.393Z,66.5
2022-09-12T04:41:16.219Z,66.4
2022-09-12T04:46:51.259Z,66.5
2022-09-12T04:52:25.945Z,67.1
2022-09-12T04:58:00.867Z,68
2022-09-12T05:03:37.231Z,68
2022-09-12T05:09:13.069Z,67.9
2022-09-12T05:14:48.210Z,68.3
2022-09-12T05:20:22.897Z,68.6
2022-09-12T05:25:57.938Z,68.4
2022-09-12T05:31:54.444Z,68.2
2022-09-12T05:37:28.422Z,68.4
2022-09-12T05:43:03.223Z,68.5
2022-09-12T05:48:37.842Z,68.5
2022-09-12T05:54:12.949Z,68.8
2022-09-12T05:59:48.351Z,69.5
2022-09-12T06:05:23.158Z,67.6
2022-09-12T06:11:02.554Z,65.7
2022-09-12T06:16:38.343Z,64.6
2022-09-12T06:22:14.741Z,70.2
2022-09-12T06:27:49.548Z,66.6
2022-09-12T06:33:46.392Z,67.2
2022-09-12T06:39:20.462Z,72
2022-09-12T06:44:55.417Z,69.7
2022-09-12T06:50:30.349Z,70.4
2022-09-12T06:56:06.736Z,72.1
2022-09-12T07:01:42.392Z,70.2
2022-09-12T07:07:18.574Z,69.7
2022-09-12T07:12:53.837Z,69.4
2022-09-12T07:18:30.135Z,71.5
2022-09-12T07:24:07.452Z,71
2022-09-12T07:29:52.465Z,70.6
2022-09-12T07:35:29.077Z,71.1
2022-09-12T07:41:04.309Z,70.5
2022-09-12T07:46:39.516Z,57.3
2022-09-12T07:52:15.866Z,58.6
2022-09-12T07:57:51.145Z,59.3
2022-09-12T08:03:26.497Z,64
2022-09-12T08:09:02.088Z,60.8
2022-09-12T08:14:38.083Z,66
2022-09-12T08:20:13.723Z,63.4
2022-09-12T08:25:49.005Z,64.9
2022-09-12T08:31:45.631Z,52.9
2022-09-12T08:37:18.653Z,51
2022-09-12T08:42:53.737Z,53
2022-09-12T08:48:29.836Z,49.6
2022-09-12T08:54:04.849Z,48.4
2022-09-12T08:59:39.689Z,60.2
2022-09-12T09:05:14.518Z,50.5
2022-09-12T09:10:49.780Z,56
2022-09-12T09:16:25.855Z,54.1
2022-09-12T09:22:01.516Z,55.1
2022-09-12T09:27:41.958Z,47.9
2022-09-12T09:33:17.414Z,42.7
2022-09-12T09:38:54.516Z,44.9
2022-09-12T09:44:29.448Z,40.9
2022-09-12T09:50:04.445Z,42.7
2022-09-12T09:55:39.490Z,37.8
2022-09-12T10:01:14.611Z,39
2022-09-12T10:06:50.487Z,42.2
2022-09-12T10:12:25.686Z,34.3
2022-09-12T10:18:01.723Z,30.9
2022-09-12T10:23:36.722Z,34.9
2022-09-12T10:29:11.714Z,38.1
2022-09-12T10:34:46.675Z,36.5
2022-09-12T10:40:21.714Z,31
2022-09-12T10:45:58.980Z,31.3
2022-09-12T10:51:34.880Z,28.7
2022-09-12T10:57:10.376Z,29
2022-09-12T11:02:45.696Z,28.8
2022-09-12T11:08:21.363Z,30.4
2022-09-12T11:13:56.516Z,29.5
2022-09-12T11:19:31.611Z,27
2022-09-12T11:25:06.562Z,27.2
2022-09-12T11:30:41.740Z,28.7
2022-09-12T11:36:17.508Z,27.2
2022-09-12T11:41:52.381Z,28.2
2022-09-12T11:47:27.716Z,27.1
2022-09-12T11:53:02.623Z,29.3
2022-09-12T11:58:39.282Z,29.3
2022-09-12T12:04:15.706Z,29.2
2022-09-12T12:09:50.926Z,29.1
2022-09-12T12:15:26.275Z,28.6
2022-09-12T12:21:01.667Z,28.8
2022-09-12T12:26:36.440Z,30.6
2022-09-12T12:32:11.907Z,31.1
2022-09-12T12:37:46.846Z,30.3
2022-09-12T12:43:22.664Z,31
2022-09-12T12:48:58.456Z,31.3
2022-09-12T12:54:34.337Z,34.2
2022-09-12T13:00:10.163Z,34.7
2022-09-12T13:05:45.317Z,32.3
2022-09-12T13:11:20.875Z,34.2
2022-09-12T13:16:55.783Z,32.3
2022-09-12T13:22:30.889Z,29
2022-09-12T13:28:06.008Z,28.9
2022-09-12T13:33:41.619Z,28.5
2022-09-12T13:39:17.723Z,24.4
2022-09-12T13:44:53.821Z,25.7
2022-09-12T13:50:28.941Z,25.5
2022-09-12T13:56:04.403Z,24.5
2022-09-12T14:01:40.008Z,23.2
2022-09-12T14:07:15.642Z,23.7
2022-09-12T14:12:50.585Z,25.4
2022-09-12T14:18:26.084Z,29.2
2022-09-12T14:24:00.931Z,30.3
2022-09-12T14:29:35.854Z,29.3
2022-09-12T14:35:10.812Z,28
2022-09-12T14:40:46.614Z,23.9
2022-09-12T14:46:23.328Z,24
2022-09-12T14:51:59.430Z,23.7
2022-09-12T14:57:34.454Z,24.4
2022-09-12T15:03:09.140Z,26.6
2022-09-12T15:08:44.993Z,26.4
2022-09-12T15:14:19.936Z,26.6
2022-09-12T15:19:54.993Z,26.8
2022-09-12T15:25:30.814Z,28.2
2022-09-12T15:31:05.953Z,29.5
2022-09-12T15:36:42.461Z,30.1
2022-09-12T15:42:18.937Z,33.6
2022-09-12T15:47:53.765Z,32.1
2022-09-12T15:53:28.763Z,32.8
2022-09-12T15:59:03.942Z,34.8
2022-09-12T16:04:38.726Z,34.9
2022-09-12T16:10:13.549Z,36.3
2022-09-12T16:15:49.057Z,38.1
2022-09-12T16:21:24.426Z,37.2
2022-09-12T16:27:01.859Z,37.5
2022-09-12T16:32:38.372Z,39.7
2022-09-12T16:38:13.203Z,40.8
2022-09-12T16:43:47.903Z,39.8
2022-09-12T16:49:22.762Z,40
2022-09-12T16:54:57.843Z,42.8
2022-09-12T17:00:32.730Z,42.9
2022-09-12T17:06:08.157Z,44.9
2022-09-12T17:11:42.940Z,45.3
2022-09-12T17:17:17.878Z,43.2
2022-09-12T17:22:52.979Z,46.3
2022-09-12T17:28:29.044Z,41.9
2022-09-12T17:34:04.035Z,43.4
2022-09-12T17:39:40.192Z,46.6
2022-09-12T17:45:18.995Z,45.6
2022-09-12T17:50:54.183Z,45.8
2022-09-12T17:56:29.592Z,44.9
2022-09-12T18:02:04.879Z,45.9
2022-09-12T18:07:44.579Z,48.6
2022-09-12T18:13:19.820Z,51.1
2022-09-12T18:18:55.368Z,54
2022-09-12T18:24:30.678Z,55.2
2022-09-12T18:30:22.184Z,58.2
2022-09-12T18:35:58.377Z,58.6
2022-09-12T18:41:33.751Z,57.3
2022-09-12T18:47:08.568Z,60.4
2022-09-12T18:52:43.167Z,63.6
2022-09-12T18:58:17.881Z,60.4
2022-09-12T19:03:53.581Z,62.8
2022-09-12T19:09:28.443Z,63.4
2022-09-12T19:15:03.512Z,63.9
2022-09-12T19:20:39.152Z,62
2022-09-12T19:26:14.169Z,63.8
2022-09-12T19:31:49.197Z,64
2022-09-12T19:37:24.555Z,64.5
2022-09-12T19:42:59.703Z,65
2022-09-12T19:48:34.742Z,60.9
2022-09-12T19:54:09.812Z,64
2022-09-12T19:59:44.607Z,55.7
2022-09-12T20:05:20.307Z,58.1
2022-09-12T20:10:57.447Z,58.4
2022-09-12T20:16:32.638Z,57.8
2022-09-12T20:22:08.733Z,56.2
2022-09-12T20:27:44.931Z,55.1
2022-09-12T20:33:19.830Z,53.8
2022-09-12T20:38:55.177Z,52.9
2022-09-12T20:44:30.294Z,53
2022-09-12T20:50:05.127Z,55.8
2022-09-12T20:55:39.990Z,57.2
2022-09-12T21:01:16.742Z,59.3
2022-09-12T21:06:52.699Z,60.3
2022-09-12T21:12:27.477Z,60.7
2022-09-12T21:18:02.749Z,61.9
2022-09-12T21:23:37.908Z,64.1
2022-09-12T21:29:14.451Z,65
2022-09-12T21:34:50.488Z,65.7
2022-09-12T21:40:25.321Z,66.1
2022-09-12T21:46:03.049Z,66.9
2022-09-12T21:51:39.494Z,67.1
2022-09-12T21:57:14.625Z,67
2022-09-12T22:02:49.497Z,67.4
2022-09-12T22:08:24.468Z,67.1
2022-09-12T22:13:59.257Z,66.7
2022-09-12T22:19:34.166Z,66.7
2022-09-12T22:25:09.166Z,67
2022-09-12T22:30:44.154Z,68.1
2022-09-12T22:36:19.372Z,68.2
2022-09-12T22:41:55.100Z,68.4
2022-09-12T22:47:31.025Z,68.4
2022-09-12T22:53:07.012Z,68.2
2022-09-12T22:58:42.321Z,67.8
2022-09-12T23:04:17.190Z,67
2022-09-12T23:09:52.183Z,66.9
2022-09-12T23:15:28.369Z,66.5
2022-09-12T23:21:03.285Z,66.2
2022-09-12T23:26:38.170Z,66.1
2022-09-12T23:32:14.467Z,66.1
2022-09-12T23:37:50.140Z,66.1
2022-09-12T23:43:25.981Z,66.2
2022-09-12T23:49:00.867Z,66.2
2022-09-12T23:54:35.650Z,66.3
